Alpena, Arkansas
Current Conditions -  °F | °C
As of 3:53 AM on Saturday 22 Nov 2014 (Local Time) from KHRO Reporting Station
Few Clouds Few Clouds  
Wind Chill: 11°   Ceiling: Unl
Heat Index: 11°   Visibility: 10mi
Dew Point:   Wind: 13mph
Humidity: 83%   Direction: 170°S
Pressure: 30.14"   Gusts: NA
Location:  36.29°N, 93.29°W
Report Text: KHRO 220953Z AUTO 17011KT 10SM FEW065 11/08 A3014 RMK AO2 SLP205 T01110083
Loading
Personal Weather Stations






























Interactive Weather Map New forecast layout! Learn more

10-Day Weather Forecast

Advertisements
Track Severe Weather on mobile